createdAt,value
2018-11-03T00:01:07.568Z,85.59
2018-11-03T00:06:09.900Z,86.07
2018-11-03T00:11:12.236Z,86.17
2018-11-03T00:16:14.557Z,86.04
2018-11-03T00:21:16.991Z,85.50
2018-11-03T00:26:19.290Z,85.00
2018-11-03T00:31:21.654Z,85.43
2018-11-03T00:36:23.956Z,85.61
2018-11-03T00:41:26.232Z,85.06
2018-11-03T00:46:28.657Z,85.02
2018-11-03T00:51:31.052Z,84.59
2018-11-03T00:56:33.428Z,84.52
2018-11-03T01:01:35.774Z,84.76
2018-11-03T01:06:38.071Z,84.87
2018-11-03T01:11:40.367Z,85.45
2018-11-03T01:16:42.675Z,84.77
2018-11-03T01:21:45.100Z,84.94
2018-11-03T01:26:47.379Z,84.50
2018-11-03T01:31:49.747Z,85.30
2018-11-03T01:36:52.064Z,85.70
2018-11-03T01:41:54.355Z,85.78
2018-11-03T01:46:56.704Z,85.24
2018-11-03T01:51:59.076Z,84.90
2018-11-03T01:57:01.324Z,84.62
2018-11-03T02:02:03.803Z,85.25
2018-11-03T02:07:06.369Z,85.36
2018-11-03T02:12:08.688Z,85.13
2018-11-03T02:17:10.996Z,85.53
2018-11-03T02:22:13.356Z,84.97
2018-11-03T02:27:15.692Z,85.07
2018-11-03T02:32:18.060Z,84.86
2018-11-03T02:37:20.359Z,85.15
2018-11-03T02:42:22.681Z,85.05
2018-11-03T02:47:25.061Z,84.85
2018-11-03T02:52:27.532Z,85.50
2018-11-03T02:57:29.884Z,85.04
2018-11-03T03:02:32.243Z,85.11
2018-11-03T03:07:34.563Z,85.25
2018-11-03T03:12:37.313Z,84.96
2018-11-03T03:17:40.015Z,85.28
2018-11-03T03:22:42.400Z,85.68
2018-11-03T03:27:44.744Z,86.33
2018-11-03T03:32:47.320Z,86.08
2018-11-03T03:37:49.784Z,85.65
2018-11-03T03:42:52.084Z,86.68
2018-11-03T03:47:54.383Z,86.74
2018-11-03T03:52:56.675Z,86.44
2018-11-03T03:57:58.980Z,86.37
2018-11-03T04:03:01.351Z,86.23
2018-11-03T04:08:03.671Z,87.31
2018-11-03T04:13:05.977Z,86.97
2018-11-03T04:18:09.063Z,86.54
2018-11-03T04:23:11.343Z,86.88
2018-11-03T04:28:13.628Z,86.69
2018-11-03T04:33:16.108Z,85.99
2018-11-03T04:38:18.385Z,86.02
2018-11-03T04:43:20.720Z,86.53
2018-11-03T04:48:23.033Z,86.87
2018-11-03T04:53:25.336Z,87.25
2018-11-03T04:58:27.617Z,86.98
2018-11-03T05:03:29.946Z,86.65
2018-11-03T05:08:32.219Z,86.54
2018-11-03T05:13:34.849Z,86.72
2018-11-03T05:18:37.234Z,87.21
2018-11-03T05:23:39.507Z,87.60
2018-11-03T05:28:41.836Z,87.59
2018-11-03T05:33:44.246Z,87.61
2018-11-03T05:38:46.603Z,87.47
2018-11-03T05:43:49.071Z,88.17
2018-11-03T05:48:52.820Z,88.00
2018-11-03T05:53:55.446Z,87.70
2018-11-03T05:58:57.896Z,87.36
2018-11-03T06:04:00.531Z,86.90
2018-11-03T06:09:04.087Z,86.73
2018-11-03T06:14:06.784Z,85.24
2018-11-03T06:19:09.076Z,85.68
2018-11-03T06:24:11.344Z,85.82
2018-11-03T06:29:13.624Z,85.61
2018-11-03T06:34:15.988Z,85.55
2018-11-03T06:39:18.362Z,85.16
2018-11-03T06:44:20.656Z,86.00
2018-11-03T06:49:23.851Z,85.64
2018-11-03T06:54:26.258Z,85.75
2018-11-03T06:59:28.574Z,86.35
2018-11-03T07:04:30.996Z,85.84
2018-11-03T07:09:33.403Z,86.42
2018-11-03T07:14:35.704Z,86.22
2018-11-03T07:19:38.102Z,86.43
2018-11-03T07:24:40.418Z,86.37
2018-11-03T07:29:42.817Z,85.92
2018-11-03T07:34:45.214Z,85.95
2018-11-03T07:39:47.513Z,85.26
2018-11-03T07:44:49.928Z,84.81
2018-11-03T07:49:52.321Z,85.45
2018-11-03T07:54:54.686Z,85.47
2018-11-03T07:59:56.967Z,84.61
2018-11-03T08:04:59.338Z,84.07
2018-11-03T08:10:01.627Z,83.86
2018-11-03T08:15:04.729Z,82.27
2018-11-03T08:20:08.474Z,82.77
2018-11-03T08:25:10.819Z,81.32
2018-11-03T08:30:13.863Z,80.91
2018-11-03T08:35:16.321Z,81.00
2018-11-03T08:40:18.630Z,80.39
2018-11-03T08:45:20.910Z,80.00
2018-11-03T08:50:23.198Z,80.89
2018-11-03T08:55:25.497Z,80.03
2018-11-03T09:00:27.861Z,80.11
2018-11-03T09:05:30.171Z,80.61
2018-11-03T09:10:32.454Z,80.61
2018-11-03T09:15:34.730Z,81.16
2018-11-03T09:20:37.026Z,81.22
2018-11-03T09:25:39.322Z,81.01
2018-11-03T09:30:41.685Z,80.31
2018-11-03T09:35:44.067Z,79.98
2018-11-03T09:40:46.352Z,80.16
2018-11-03T09:45:48.642Z,79.79
2018-11-03T09:50:50.952Z,79.70
2018-11-03T09:55:53.248Z,79.06
2018-11-03T10:00:55.536Z,79.83
2018-11-03T10:05:57.889Z,79.13
2018-11-03T10:11:00.180Z,78.37
2018-11-03T10:16:02.569Z,78.59
2018-11-03T10:21:05.186Z,78.08
2018-11-03T10:26:07.490Z,77.88
2018-11-03T10:31:09.800Z,77.51
2018-11-03T10:36:12.186Z,77.99
2018-11-03T10:41:14.474Z,78.23
2018-11-03T10:46:16.865Z,77.61
2018-11-03T10:51:19.137Z,78.17
2018-11-03T10:56:21.486Z,77.50
2018-11-03T11:01:29.386Z,77.76
2018-11-03T11:06:37.471Z,77.82
2018-11-03T11:11:45.834Z,77.65
2018-11-03T11:16:48.192Z,77.91
2018-11-03T11:21:50.446Z,77.79
2018-11-03T11:26:52.742Z,77.81
2018-11-03T11:31:55.075Z,77.96
2018-11-03T11:36:57.434Z,76.36
2018-11-03T11:41:59.778Z,76.67
2018-11-03T11:47:02.078Z,76.80
2018-11-03T11:52:04.451Z,76.57
2018-11-03T11:57:06.739Z,76.92
2018-11-03T12:02:09.259Z,76.74
2018-11-03T12:07:11.673Z,77.41
2018-11-03T12:12:13.977Z,77.08
2018-11-03T12:17:16.259Z,76.52
2018-11-03T12:22:18.601Z,76.81
2018-11-03T12:27:20.883Z,77.46
2018-11-03T12:32:23.260Z,76.79
2018-11-03T12:37:25.673Z,77.64
2018-11-03T12:42:28.310Z,77.29
2018-11-03T12:47:30.606Z,77.25
2018-11-03T12:52:32.922Z,77.09
2018-11-03T12:57:35.245Z,76.85
2018-11-03T13:02:38.004Z,76.99
2018-11-03T13:07:41.731Z,77.35
2018-11-03T13:12:44.954Z,76.38
2018-11-03T13:17:47.250Z,77.48
2018-11-03T13:22:49.611Z,76.95
2018-11-03T13:27:51.836Z,76.56
2018-11-03T13:32:54.155Z,76.65
2018-11-03T13:37:56.519Z,77.50
2018-11-03T13:42:58.882Z,77.42
2018-11-03T13:48:01.211Z,76.67
2018-11-03T13:53:03.534Z,76.64
2018-11-03T13:58:06.119Z,77.17
2018-11-03T14:03:08.422Z,77.42
2018-11-03T14:08:10.770Z,77.86
2018-11-03T14:18:27.962Z,77.86
2018-11-03T14:23:30.294Z,78.28
2018-11-03T14:28:32.570Z,78.55
2018-11-03T14:33:34.867Z,78.95
2018-11-03T14:38:37.204Z,79.15
2018-11-03T14:43:39.476Z,79.74
2018-11-03T14:48:41.931Z,79.83
2018-11-03T14:53:44.275Z,79.56
2018-11-03T14:58:46.569Z,80.39
2018-11-03T15:03:48.848Z,80.38
2018-11-03T15:08:51.194Z,81.13
2018-11-03T15:13:53.582Z,81.23
2018-11-03T15:18:55.798Z,81.67
2018-11-03T15:23:58.102Z,82.02
2018-11-03T15:29:00.398Z,82.54
2018-11-03T15:34:02.727Z,82.73
2018-11-03T15:39:05.771Z,83.52
2018-11-03T15:44:08.047Z,83.77
2018-11-03T15:49:10.377Z,83.77
2018-11-03T15:54:12.674Z,84.06
2018-11-03T15:59:14.974Z,84.34
2018-11-03T16:04:17.254Z,84.85
2018-11-03T16:09:19.585Z,85.18
2018-11-03T16:14:21.870Z,84.86
2018-11-03T16:19:24.312Z,85.91
2018-11-03T16:24:26.585Z,85.67
2018-11-03T16:29:28.873Z,85.90
2018-11-03T16:34:31.155Z,86.30
2018-11-03T16:39:33.452Z,86.24
2018-11-03T16:44:35.722Z,87.11
2018-11-03T16:49:38.005Z,86.44
2018-11-03T16:54:40.259Z,86.75
2018-11-03T16:59:42.640Z,86.70
2018-11-03T17:04:44.897Z,86.48
2018-11-03T17:09:47.205Z,86.38
2018-11-03T17:14:49.485Z,86.49
2018-11-03T17:19:51.784Z,86.54
2018-11-03T17:24:54.228Z,86.42
2018-11-03T17:29:56.520Z,85.98
2018-11-03T17:34:58.843Z,86.08
2018-11-03T17:40:01.176Z,85.57
2018-11-03T17:45:03.805Z,85.42
2018-11-03T17:50:07.602Z,85.54
2018-11-03T17:55:10.283Z,85.23
2018-11-03T18:00:16.267Z,85.20
2018-11-03T18:05:18.559Z,85.16
2018-11-03T18:10:20.895Z,85.11
2018-11-03T18:15:23.196Z,85.35
2018-11-03T18:20:25.463Z,84.96
2018-11-03T18:25:27.748Z,85.08
2018-11-03T18:30:30.027Z,84.98
2018-11-03T18:35:32.342Z,84.77
2018-11-03T18:40:34.650Z,84.64
2018-11-03T18:45:36.907Z,84.94
2018-11-03T18:50:39.159Z,84.83
2018-11-03T18:55:41.407Z,85.12
2018-11-03T19:00:43.679Z,85.06
2018-11-03T19:05:46.054Z,85.13
2018-11-03T19:10:48.374Z,85.28
2018-11-03T19:15:50.734Z,85.15
2018-11-03T19:20:53.010Z,85.07
2018-11-03T19:25:55.277Z,85.26
2018-11-03T19:30:57.605Z,85.34
2018-11-03T19:35:59.903Z,84.88
2018-11-03T19:41:02.255Z,85.30
2018-11-03T19:46:04.952Z,85.67
2018-11-03T19:51:07.246Z,85.70
2018-11-03T19:56:09.538Z,85.60
2018-11-03T20:01:11.848Z,85.64
2018-11-03T20:06:14.127Z,85.47
2018-11-03T20:11:16.463Z,85.94
2018-11-03T20:16:18.741Z,85.54
2018-11-03T20:21:21.011Z,85.79
2018-11-03T20:26:23.407Z,85.89
2018-11-03T20:31:25.641Z,86.21
2018-11-03T20:36:27.928Z,86.74
2018-11-03T20:41:30.323Z,86.26
2018-11-03T20:46:32.615Z,86.73
2018-11-03T20:51:34.915Z,86.52
2018-11-03T20:56:37.229Z,86.74
2018-11-03T21:01:39.572Z,86.83
2018-11-03T21:06:41.931Z,87.01
2018-11-03T21:11:44.337Z,87.04
2018-11-03T21:16:47.223Z,87.06
2018-11-03T21:21:49.555Z,87.24
2018-11-03T21:26:51.873Z,87.21
2018-11-03T21:31:54.227Z,87.60
2018-11-03T21:36:56.491Z,87.09
2018-11-03T21:42:00.643Z,87.55
2018-11-03T21:47:03.062Z,87.57
2018-11-03T21:52:06.006Z,87.62
2018-11-03T21:57:08.316Z,87.97
2018-11-03T22:02:10.602Z,87.86
2018-11-03T22:07:12.904Z,87.95
2018-11-03T22:12:15.255Z,88.49
2018-11-03T22:17:18.083Z,88.60
2018-11-03T22:22:20.383Z,88.65
2018-11-03T22:27:22.693Z,88.89
2018-11-03T22:32:25.886Z,88.75
2018-11-03T22:37:28.402Z,88.81
2018-11-03T22:42:30.759Z,88.73
2018-11-03T22:47:33.179Z,89.12
2018-11-03T22:52:35.568Z,89.24
2018-11-03T22:57:38.435Z,89.23
2018-11-03T23:02:41.447Z,89.66
2018-11-03T23:07:43.794Z,89.12
2018-11-03T23:12:46.227Z,89.71
2018-11-03T23:17:48.628Z,89.82
2018-11-03T23:22:51.105Z,89.57
2018-11-03T23:27:53.955Z,89.80
2018-11-03T23:32:56.403Z,89.87
2018-11-03T23:37:58.773Z,90.20
2018-11-03T23:43:01.214Z,90.07
2018-11-03T23:48:03.958Z,89.70
2018-11-03T23:53:06.290Z,90.63
2018-11-03T23:58:08.596Z,90.49
